Terminal Aerodrome Forecast
Issued by NWS Albuquerque, NM

Home | Current Version | Previous Version | Text Only | Print | Product List | Glossary On
Versions: 1 2 3 4 5 6 7 8 9 10 11 12
000
FTUS45 KABQ 260543
TAFABQ
TAF
KABQ 260543Z 2606/2706 VRB03KT P6SM FEW150
     FM261100 25007KT P6SM BKN090
     FM261800 26008KT P6SM SCT090 SCT120
     FM262100 29012KT P6SM BKN080
     FM270200 16006KT P6SM SKC=

USA.gov is the U.S. government's official web portal to all federal, state and local government web resources and services.